sensor_id;sensor_type;location;lat;lon;timestamp;pressure;altitude;pressure_sealevel;temperature;humidity
57094;BME280;42970;50.996;3.706;2022-09-13T00:01:03;75428.31;;;-146.65;85.81
57094;BME280;42970;50.996;3.706;2022-09-13T00:03:28;75436.38;;;-146.65;84.55
57094;BME280;42970;50.996;3.706;2022-09-13T00:05:54;75432.34;;;-146.65;83.70
57094;BME280;42970;50.996;3.706;2022-09-13T00:08:19;75416.22;;;-146.65;84.89
57094;BME280;42970;50.996;3.706;2022-09-13T00:10:45;75418.25;;;-146.65;85.10
57094;BME280;42970;50.996;3.706;2022-09-13T00:13:13;75432.34;;;-146.65;85.25
57094;BME280;42970;50.996;3.706;2022-09-13T00:15:47;75422.28;;;-146.65;85.00
57094;BME280;42970;50.996;3.706;2022-09-13T00:18:14;75404.13;;;-146.65;84.12
57094;BME280;42970;50.996;3.706;2022-09-13T00:20:39;75398.06;;;-146.65;82.61
57094;BME280;42970;50.996;3.706;2022-09-13T00:23:05;75402.09;;;-146.65;82.59
57094;BME280;42970;50.996;3.706;2022-09-13T00:25:30;75383.94;;;-146.65;82.29
57094;BME280;42970;50.996;3.706;2022-09-13T00:27:56;75387.97;;;-146.65;82.44
57094;BME280;42970;50.996;3.706;2022-09-13T00:30:21;75396.06;;;-146.65;83.69
57094;BME280;42970;50.996;3.706;2022-09-13T00:32:47;75402.09;;;-146.65;84.98
57094;BME280;42970;50.996;3.706;2022-09-13T00:35:12;75408.16;;;-146.65;84.84
57094;BME280;42970;50.996;3.706;2022-09-13T00:37:38;75414.19;;;-146.65;85.15
57094;BME280;42970;50.996;3.706;2022-09-13T00:40:04;75396.06;;;-146.65;85.23
57094;BME280;42970;50.996;3.706;2022-09-13T00:42:31;75396.06;;;-146.65;85.18
57094;BME280;42970;50.996;3.706;2022-09-13T00:47:57;75400.09;;;-146.65;84.38
57094;BME280;42970;50.996;3.706;2022-09-13T00:50:31;75400.09;;;-146.65;84.26
57094;BME280;42970;50.996;3.706;2022-09-13T00:53:23;75385.97;;;-146.65;83.83
57094;BME280;42970;50.996;3.706;2022-09-13T00:56:05;75379.91;;;-146.65;83.13
57094;BME280;42970;50.996;3.706;2022-09-13T00:58:45;75375.88;;;-146.65;83.33
57094;BME280;42970;50.996;3.706;2022-09-13T01:01:14;75385.97;;;-146.65;85.00
57094;BME280;42970;50.996;3.706;2022-09-13T01:03:42;75396.06;;;-146.65;85.68
57094;BME280;42970;50.996;3.706;2022-09-13T01:06:17;75404.13;;;-146.65;86.07
57094;BME280;42970;50.996;3.706;2022-09-13T01:08:48;75404.13;;;-146.65;86.13
57094;BME280;42970;50.996;3.706;2022-09-13T01:11:24;75404.13;;;-146.65;86.32
57094;BME280;42970;50.996;3.706;2022-09-13T01:13:53;75408.16;;;-146.65;87.22
57094;BME280;42970;50.996;3.706;2022-09-13T01:16:19;75406.13;;;-146.65;86.55
57094;BME280;42970;50.996;3.706;2022-09-13T01:18:44;75420.25;;;-146.65;86.44
57094;BME280;42970;50.996;3.706;2022-09-13T01:43:18;75460.59;;;-146.65;87.29
57094;BME280;42970;50.996;3.706;2022-09-13T01:48:54;75464.63;;;-146.65;87.83
57094;BME280;42970;50.996;3.706;2022-09-13T01:56:42;75484.78;;;-146.65;88.94
57094;BME280;42970;50.996;3.706;2022-09-13T01:59:20;75492.88;;;-146.65;89.91
57094;BME280;42970;50.996;3.706;2022-09-13T02:04:22;75504.97;;;-146.65;90.01
57094;BME280;42970;50.996;3.706;2022-09-13T02:06:53;75498.91;;;-146.65;89.98
57094;BME280;42970;50.996;3.706;2022-09-13T02:09:25;75504.97;;;-146.65;89.89
57094;BME280;42970;50.996;3.706;2022-09-13T02:12:05;75509.00;;;-146.65;90.16
57094;BME280;42970;50.996;3.706;2022-09-13T02:14:40;75511.03;;;-146.65;90.34
57094;BME280;42970;50.996;3.706;2022-09-13T02:17:13;75517.06;;;-146.65;90.51
57094;BME280;42970;50.996;3.706;2022-09-13T02:19:46;75517.06;;;-146.65;90.39
57094;BME280;42970;50.996;3.706;2022-09-13T02:22:17;75517.06;;;-146.65;89.49
57094;BME280;42970;50.996;3.706;2022-09-13T02:24:47;75537.25;;;-146.65;89.53
57094;BME280;42970;50.996;3.706;2022-09-13T02:27:20;75567.50;;;-146.65;90.21
57094;BME280;42970;50.996;3.706;2022-09-13T02:29:49;75567.50;;;-146.65;91.14
57094;BME280;42970;50.996;3.706;2022-09-13T02:32:53;75573.53;;;-146.65;91.69
57094;BME280;42970;50.996;3.706;2022-09-13T02:35:37;75577.59;;;-146.65;92.22
57094;BME280;42970;50.996;3.706;2022-09-13T02:38:06;75575.56;;;-146.65;92.32
57094;BME280;42970;50.996;3.706;2022-09-13T02:40:45;75567.50;;;-146.65;92.40
57094;BME280;42970;50.996;3.706;2022-09-13T02:43:36;75571.53;;;-146.65;92.72
57094;BME280;42970;50.996;3.706;2022-09-13T02:49:18;75561.44;;;-146.65;92.42
57094;BME280;42970;50.996;3.706;2022-09-13T02:51:43;75557.41;;;-146.65;91.94
57094;BME280;42970;50.996;3.706;2022-09-13T02:59:19;75539.25;;;-146.65;92.04
57094;BME280;42970;50.996;3.706;2022-09-13T03:04:29;75533.22;;;-146.65;91.54
57094;BME280;42970;50.996;3.706;2022-09-13T03:06:54;75535.22;;;-146.65;91.94
57094;BME280;42970;50.996;3.706;2022-09-13T03:09:20;75531.19;;;-146.65;92.07
57094;BME280;42970;50.996;3.706;2022-09-13T03:12:54;75533.22;;;-146.65;92.03
57094;BME280;42970;50.996;3.706;2022-09-13T03:15:59;75531.19;;;-146.65;92.18
57094;BME280;42970;50.996;3.706;2022-09-13T03:21:00;75521.09;;;-146.65;92.07
57094;BME280;42970;50.996;3.706;2022-09-13T03:32:18;75521.09;;;-146.65;92.24
57094;BME280;42970;50.996;3.706;2022-09-13T03:35:16;75513.03;;;-146.65;92.31
57094;BME280;42970;50.996;3.706;2022-09-13T03:40:52;75515.06;;;-146.65;92.50
57094;BME280;42970;50.996;3.706;2022-09-13T03:43:47;75517.06;;;-146.65;92.54
57094;BME280;42970;50.996;3.706;2022-09-13T03:46:23;75519.09;;;-146.65;92.68
57094;BME280;42970;50.996;3.706;2022-09-13T03:48:51;75519.09;;;-146.65;92.54
57094;BME280;42970;50.996;3.706;2022-09-13T03:51:17;75517.06;;;-146.65;92.97
57094;BME280;42970;50.996;3.706;2022-09-13T03:53:47;75527.16;;;-146.65;92.77
57094;BME280;42970;50.996;3.706;2022-09-13T03:56:19;75521.09;;;-146.65;92.75
57094;BME280;42970;50.996;3.706;2022-09-13T03:58:45;75525.13;;;-146.65;93.04
57094;BME280;42970;50.996;3.706;2022-09-13T04:01:11;75529.16;;;-146.65;92.95
57094;BME280;42970;50.996;3.706;2022-09-13T04:03:37;75525.13;;;-146.65;92.87
57094;BME280;42970;50.996;3.706;2022-09-13T04:06:02;75523.13;;;-146.65;92.87
57094;BME280;42970;50.996;3.706;2022-09-13T04:08:28;75527.16;;;-146.65;92.97
57094;BME280;42970;50.996;3.706;2022-09-13T04:10:53;75527.16;;;-146.65;93.18
57094;BME280;42970;50.996;3.706;2022-09-13T04:13:19;75535.22;;;-146.65;93.12
57094;BME280;42970;50.996;3.706;2022-09-13T04:15:47;75529.16;;;-146.65;93.21
57094;BME280;42970;50.996;3.706;2022-09-13T04:18:14;75525.13;;;-146.65;92.74
57094;BME280;42970;50.996;3.706;2022-09-13T04:20:40;75529.16;;;-146.65;92.36
57094;BME280;42970;50.996;3.706;2022-09-13T04:23:05;75533.22;;;-146.65;92.45
57094;BME280;42970;50.996;3.706;2022-09-13T04:25:30;75539.25;;;-146.65;93.18
57094;BME280;42970;50.996;3.706;2022-09-13T04:27:56;75539.25;;;-146.65;93.40
57094;BME280;42970;50.996;3.706;2022-09-13T04:30:26;75541.28;;;-146.65;93.72
57094;BME280;42970;50.996;3.706;2022-09-13T04:32:52;75537.25;;;-146.65;93.84
57094;BME280;42970;50.996;3.706;2022-09-13T04:35:17;75539.25;;;-146.65;93.87
57094;BME280;42970;50.996;3.706;2022-09-13T04:37:43;75541.28;;;-146.65;93.87
57094;BME280;42970;50.996;3.706;2022-09-13T04:40:09;75547.31;;;-146.65;93.53
57094;BME280;42970;50.996;3.706;2022-09-13T04:42:35;75539.25;;;-146.65;93.46
57094;BME280;42970;50.996;3.706;2022-09-13T04:45:01;75553.38;;;-146.65;93.52
57094;BME280;42970;50.996;3.706;2022-09-13T04:47:26;75543.28;;;-146.65;93.46
57094;BME280;42970;50.996;3.706;2022-09-13T04:49:52;75551.34;;;-146.65;93.28
57094;BME280;42970;50.996;3.706;2022-09-13T04:52:17;75557.41;;;-146.65;93.22
57094;BME280;42970;50.996;3.706;2022-09-13T04:54:42;75557.41;;;-146.65;93.62
57094;BME280;42970;50.996;3.706;2022-09-13T04:57:08;75561.44;;;-146.65;93.75
57094;BME280;42970;50.996;3.706;2022-09-13T04:59:33;75561.44;;;-146.65;94.17
57094;BME280;42970;50.996;3.706;2022-09-13T05:01:58;75557.41;;;-146.65;94.46
57094;BME280;42970;50.996;3.706;2022-09-13T05:04:24;75557.41;;;-146.65;94.72
57094;BME280;42970;50.996;3.706;2022-09-13T05:06:49;75559.44;;;-146.65;94.47
57094;BME280;42970;50.996;3.706;2022-09-13T05:09:15;75555.41;;;-146.65;94.32
57094;BME280;42970;50.996;3.706;2022-09-13T05:11:40;75561.44;;;-146.65;94.50
57094;BME280;42970;50.996;3.706;2022-09-13T05:14:09;75565.47;;;-146.65;94.34
57094;BME280;42970;50.996;3.706;2022-09-13T05:16:35;75571.53;;;-146.65;94.38
57094;BME280;42970;50.996;3.706;2022-09-13T05:19:01;75565.47;;;-146.65;94.50
57094;BME280;42970;50.996;3.706;2022-09-13T05:21:26;75561.44;;;-146.65;94.22
57094;BME280;42970;50.996;3.706;2022-09-13T05:23:53;75565.47;;;-146.65;94.45
57094;BME280;42970;50.996;3.706;2022-09-13T05:26:20;75569.50;;;-146.65;93.94
57094;BME280;42970;50.996;3.706;2022-09-13T05:28:46;75561.44;;;-146.65;93.77
57094;BME280;42970;50.996;3.706;2022-09-13T05:31:15;75567.50;;;-146.65;94.22
57094;BME280;42970;50.996;3.706;2022-09-13T05:33:41;75569.50;;;-146.65;94.77
57094;BME280;42970;50.996;3.706;2022-09-13T05:36:07;75561.44;;;-146.65;94.65
57094;BME280;42970;50.996;3.706;2022-09-13T05:38:32;75559.44;;;-146.65;94.38
57094;BME280;42970;50.996;3.706;2022-09-13T05:41:00;75555.41;;;-146.65;94.30
57094;BME280;42970;50.996;3.706;2022-09-13T05:43:29;75553.38;;;-146.65;94.37
57094;BME280;42970;50.996;3.706;2022-09-13T05:48:27;75559.44;;;-146.65;94.74
57094;BME280;42970;50.996;3.706;2022-09-13T05:50:52;75545.31;;;-146.65;94.11
57094;BME280;42970;50.996;3.706;2022-09-13T05:53:18;75551.34;;;-146.65;93.77
57094;BME280;42970;50.996;3.706;2022-09-13T05:55:43;75555.41;;;-146.65;93.85
57094;BME280;42970;50.996;3.706;2022-09-13T05:58:09;75559.44;;;-146.65;94.07
57094;BME280;42970;50.996;3.706;2022-09-13T06:00:34;75553.38;;;-146.65;94.47
57094;BME280;42970;50.996;3.706;2022-09-13T06:02:59;75555.41;;;-146.65;94.46
57094;BME280;42970;50.996;3.706;2022-09-13T06:05:25;75549.34;;;-146.65;94.27
57094;BME280;42970;50.996;3.706;2022-09-13T06:07:50;75547.31;;;-146.65;93.26
57094;BME280;42970;50.996;3.706;2022-09-13T06:10:16;75539.25;;;-146.65;93.20
57094;BME280;42970;50.996;3.706;2022-09-13T06:12:41;75541.28;;;-146.65;93.32
57094;BME280;42970;50.996;3.706;2022-09-13T06:15:07;75541.28;;;-146.65;93.47
57094;BME280;42970;50.996;3.706;2022-09-13T06:17:33;75533.22;;;-146.65;93.17
57094;BME280;42970;50.996;3.706;2022-09-13T06:19:58;75525.13;;;-146.65;92.17
57094;BME280;42970;50.996;3.706;2022-09-13T06:22:24;75521.09;;;-146.65;91.61
57094;BME280;42970;50.996;3.706;2022-09-13T06:24:49;75515.06;;;-146.65;91.81
57094;BME280;42970;50.996;3.706;2022-09-13T06:27:14;75509.00;;;-146.65;92.75
57094;BME280;42970;50.996;3.706;2022-09-13T06:29:40;75500.94;;;-146.65;93.12
57094;BME280;42970;50.996;3.706;2022-09-13T06:32:05;75492.88;;;-146.65;92.29
57094;BME280;42970;50.996;3.706;2022-09-13T06:34:31;75478.75;;;-146.65;91.61
57094;BME280;42970;50.996;3.706;2022-09-13T06:36:56;75468.66;;;-146.65;90.51
57094;BME280;42970;50.996;3.706;2022-09-13T06:39:22;75456.56;;;-146.65;89.64
57094;BME280;42970;50.996;3.706;2022-09-13T06:41:47;75448.50;;;-146.65;89.24
57094;BME280;42970;50.996;3.706;2022-09-13T06:44:12;75440.44;;;-146.65;89.99
57094;BME280;42970;50.996;3.706;2022-09-13T06:46:38;75432.34;;;-146.65;89.68
57094;BME280;42970;50.996;3.706;2022-09-13T06:49:05;75414.19;;;-146.65;89.97
57094;BME280;42970;50.996;3.706;2022-09-13T06:51:32;75398.06;;;-146.65;89.39
57094;BME280;42970;50.996;3.706;2022-09-13T06:53:58;75387.97;;;-146.65;89.12
57094;BME280;42970;50.996;3.706;2022-09-13T06:56:29;75377.91;;;-146.65;88.21
57094;BME280;42970;50.996;3.706;2022-09-13T06:58:57;75361.75;;;-146.65;85.92
57094;BME280;42970;50.996;3.706;2022-09-13T07:01:28;75343.59;;;-146.65;84.79
57094;BME280;42970;50.996;3.706;2022-09-13T07:04:02;75325.47;;;-146.65;84.05
57094;BME280;42970;50.996;3.706;2022-09-13T07:06:30;75301.25;;;-146.65;82.04
57094;BME280;42970;50.996;3.706;2022-09-13T07:08:59;75287.13;;;-146.65;80.90
57094;BME280;42970;50.996;3.706;2022-09-13T07:11:28;75264.94;;;-146.65;81.13
57094;BME280;42970;50.996;3.706;2022-09-13T07:13:55;75266.97;;;-146.65;82.57
57094;BME280;42970;50.996;3.706;2022-09-13T07:16:23;75260.91;;;-146.65;83.06
57094;BME280;42970;50.996;3.706;2022-09-13T07:18:53;75254.88;;;-146.65;82.04
57094;BME280;42970;50.996;3.706;2022-09-13T07:21:19;75248.81;;;-146.65;81.43
57094;BME280;42970;50.996;3.706;2022-09-13T07:23:44;75246.78;;;-146.65;82.11
57094;BME280;42970;50.996;3.706;2022-09-13T07:26:10;75234.69;;;-146.65;81.47
57094;BME280;42970;50.996;3.706;2022-09-13T07:28:37;75230.66;;;-146.65;81.25
57094;BME280;42970;50.996;3.706;2022-09-13T07:33:40;75198.38;;;-146.65;80.47
57094;BME280;42970;50.996;3.706;2022-09-13T07:36:06;75172.16;;;-146.65;79.41
57094;BME280;42970;50.996;3.706;2022-09-13T07:38:36;75154.03;;;-146.65;77.80
57094;BME280;42970;50.996;3.706;2022-09-13T07:41:02;75133.84;;;-146.65;77.84
57094;BME280;42970;50.996;3.706;2022-09-13T07:43:33;75133.84;;;-146.65;77.11
57094;BME280;42970;50.996;3.706;2022-09-13T07:46:08;75123.78;;;-146.65;76.93
57094;BME280;42970;50.996;3.706;2022-09-13T07:48:38;75105.63;;;-146.65;76.04
57094;BME280;42970;50.996;3.706;2022-09-13T07:51:12;75085.44;;;-146.65;74.44
57094;BME280;42970;50.996;3.706;2022-09-13T07:53:40;75091.50;;;-146.65;74.25
57094;BME280;42970;50.996;3.706;2022-09-13T07:58:34;75085.44;;;-146.65;75.12
57094;BME280;42970;50.996;3.706;2022-09-13T08:06:20;75089.47;;;-146.65;73.76
57094;BME280;42970;50.996;3.706;2022-09-13T08:08:46;75103.59;;;-146.65;74.53
57094;BME280;42970;50.996;3.706;2022-09-13T08:11:15;75089.47;;;-146.65;73.51
57094;BME280;42970;50.996;3.706;2022-09-13T08:13:42;75101.59;;;-146.65;76.12
57094;BME280;42970;50.996;3.706;2022-09-13T08:16:08;75105.63;;;-146.65;77.64
57094;BME280;42970;50.996;3.706;2022-09-13T08:18:33;75081.41;;;-146.65;77.54
57094;BME280;42970;50.996;3.706;2022-09-13T08:20:59;75073.34;;;-146.65;76.04
57094;BME280;42970;50.996;3.706;2022-09-13T08:23:25;75049.16;;;-146.65;76.07
57094;BME280;42970;50.996;3.706;2022-09-13T08:25:51;75037.03;;;-146.65;74.58
57094;BME280;42970;50.996;3.706;2022-09-13T08:28:18;75012.84;;;-146.65;75.07
57094;BME280;42970;50.996;3.706;2022-09-13T08:30:46;74986.63;;;-146.65;72.96
57094;BME280;42970;50.996;3.706;2022-09-13T08:33:12;74972.50;;;-146.65;72.58
57094;BME280;42970;50.996;3.706;2022-09-13T08:35:37;74952.34;;;-146.65;71.45
57094;BME280;42970;50.996;3.706;2022-09-13T08:38:04;74942.25;;;-146.65;71.01
57094;BME280;42970;50.996;3.706;2022-09-13T08:40:31;74940.25;;;-146.65;70.33
57094;BME280;42970;50.996;3.706;2022-09-13T08:46:00;74950.31;;;-146.65;69.75
57094;BME280;42970;50.996;3.706;2022-09-13T08:48:33;74948.31;;;-146.65;69.97
57094;BME280;42970;50.996;3.706;2022-09-13T08:51:03;74944.28;;;-146.65;71.21
57094;BME280;42970;50.996;3.706;2022-09-13T08:53:30;74920.06;;;-146.65;68.85
57094;BME280;42970;50.996;3.706;2022-09-13T08:56:03;74918.06;;;-146.65;68.39
57094;BME280;42970;50.996;3.706;2022-09-13T09:06:44;74889.81;;;-146.65;68.92
57094;BME280;42970;50.996;3.706;2022-09-13T09:09:15;74867.63;;;-146.65;67.39
57094;BME280;42970;50.996;3.706;2022-09-13T09:17:03;74813.19;;;-146.65;66.38
57094;BME280;42970;50.996;3.706;2022-09-13T09:19:38;74758.75;;;-146.65;65.37
57094;BME280;42970;50.996;3.706;2022-09-13T09:22:12;74752.69;;;-146.65;64.38
57094;BME280;42970;50.996;3.706;2022-09-13T09:24:39;74762.78;;;-146.65;64.47
57094;BME280;42970;50.996;3.706;2022-09-13T09:27:22;74766.81;;;-146.65;65.37
57094;BME280;42970;50.996;3.706;2022-09-13T09:29:50;74807.13;;;-146.65;64.16
57094;BME280;42970;50.996;3.706;2022-09-13T09:40:36;74684.13;;;-146.65;63.38
57094;BME280;42970;50.996;3.706;2022-09-13T09:43:14;74655.88;;;-146.65;61.46
57094;BME280;42970;50.996;3.706;2022-09-13T09:45:42;74647.81;;;-146.65;60.49
57094;BME280;42970;50.996;3.706;2022-09-13T09:48:15;74637.75;;;-146.65;59.55
57094;BME280;42970;50.996;3.706;2022-09-13T09:50:47;74657.91;;;-146.65;60.04
57094;BME280;42970;50.996;3.706;2022-09-13T09:55:54;74609.50;;;-146.65;58.87
57094;BME280;42970;50.996;3.706;2022-09-13T09:58:42;74659.91;;;-146.65;59.88
57094;BME280;42970;50.996;3.706;2022-09-13T10:01:15;74680.09;;;-146.65;60.56
57094;BME280;42970;50.996;3.706;2022-09-13T10:03:49;74659.91;;;-146.65;61.43
57094;BME280;42970;50.996;3.706;2022-09-13T10:06:21;74694.22;;;-146.65;59.75
57094;BME280;42970;50.996;3.706;2022-09-13T10:11:21;74625.63;;;-146.65;58.74
57094;BME280;42970;50.996;3.706;2022-09-13T10:14:00;74629.69;;;-146.65;58.98
57094;BME280;42970;50.996;3.706;2022-09-13T10:16:28;74637.75;;;-146.65;60.42
57094;BME280;42970;50.996;3.706;2022-09-13T10:19:15;74637.75;;;-146.65;60.47
57094;BME280;42970;50.996;3.706;2022-09-13T10:21:59;74645.81;;;-146.65;58.59
57094;BME280;42970;50.996;3.706;2022-09-13T10:24:26;74663.97;;;-146.65;58.38
57094;BME280;42970;50.996;3.706;2022-09-13T10:26:51;74661.94;;;-146.65;59.04
57094;BME280;42970;50.996;3.706;2022-09-13T10:29:17;74661.94;;;-146.65;59.48
57094;BME280;42970;50.996;3.706;2022-09-13T10:31:44;74605.47;;;-146.65;59.45
57094;BME280;42970;50.996;3.706;2022-09-13T10:34:40;74540.94;;;-146.65;58.18
57094;BME280;42970;50.996;3.706;2022-09-13T10:37:42;74528.84;;;-146.65;58.50
57094;BME280;42970;50.996;3.706;2022-09-13T10:40:32;74474.41;;;-146.65;56.32
57094;BME280;42970;50.996;3.706;2022-09-13T10:43:01;74430.03;;;-146.65;55.86
57094;BME280;42970;50.996;3.706;2022-09-13T10:45:30;74430.03;;;-146.65;54.13
57094;BME280;42970;50.996;3.706;2022-09-13T10:48:03;74492.56;;;-146.65;55.87
57094;BME280;42970;50.996;3.706;2022-09-13T10:50:29;74553.03;;;-146.65;56.31
57094;BME280;42970;50.996;3.706;2022-09-13T10:52:59;74569.19;;;-146.65;58.04
57094;BME280;42970;50.996;3.706;2022-09-13T10:57:52;74577.25;;;-146.65;58.24
57094;BME280;42970;50.996;3.706;2022-09-13T11:00:20;74597.41;;;-146.65;58.59
57094;BME280;42970;50.996;3.706;2022-09-13T11:05:25;74559.09;;;-146.65;57.30
57094;BME280;42970;50.996;3.706;2022-09-13T11:17:44;74619.59;;;-146.65;58.74
57094;BME280;42970;50.996;3.706;2022-09-13T11:25:31;74613.53;;;-146.65;59.24
57094;BME280;42970;50.996;3.706;2022-09-13T11:28:32;74579.25;;;-146.65;58.24
57094;BME280;42970;50.996;3.706;2022-09-13T11:31:33;74557.06;;;-146.65;57.52
57094;BME280;42970;50.996;3.706;2022-09-13T11:34:13;74553.03;;;-146.65;57.39
57094;BME280;42970;50.996;3.706;2022-09-13T11:39:31;74520.78;;;-146.65;57.60
57094;BME280;42970;50.996;3.706;2022-09-13T11:50:24;74585.31;;;-146.65;58.53
57094;BME280;42970;50.996;3.706;2022-09-13T11:53:10;74613.53;;;-146.65;58.95
57094;BME280;42970;50.996;3.706;2022-09-13T11:55:47;74613.53;;;-146.65;59.76
57094;BME280;42970;50.996;3.706;2022-09-13T11:58:16;74621.59;;;-146.65;60.33
57094;BME280;42970;50.996;3.706;2022-09-13T12:00:47;74629.69;;;-146.65;60.88
57094;BME280;42970;50.996;3.706;2022-09-13T12:06:07;74645.81;;;-146.65;61.37
57094;BME280;42970;50.996;3.706;2022-09-13T12:08:47;74645.81;;;-146.65;61.50
57094;BME280;42970;50.996;3.706;2022-09-13T12:11:20;74657.91;;;-146.65;62.76
57094;BME280;42970;50.996;3.706;2022-09-13T12:13:51;74635.72;;;-146.65;60.69
57094;BME280;42970;50.996;3.706;2022-09-13T12:16:41;74655.88;;;-146.65;61.39
57094;BME280;42970;50.996;3.706;2022-09-13T12:21:42;74613.53;;;-146.65;60.40
57094;BME280;42970;50.996;3.706;2022-09-13T12:24:16;74631.69;;;-146.65;60.04
57094;BME280;42970;50.996;3.706;2022-09-13T12:26:59;74617.56;;;-146.65;60.43
57094;BME280;42970;50.996;3.706;2022-09-13T12:29:43;74625.63;;;-146.65;60.78
57094;BME280;42970;50.996;3.706;2022-09-13T12:32:10;74629.69;;;-146.65;61.33
57094;BME280;42970;50.996;3.706;2022-09-13T12:34:53;74653.88;;;-146.65;62.92
57094;BME280;42970;50.996;3.706;2022-09-13T12:39:59;74641.78;;;-146.65;63.70
57094;BME280;42970;50.996;3.706;2022-09-13T12:42:56;74661.94;;;-146.65;65.23
57094;BME280;42970;50.996;3.706;2022-09-13T12:48:26;74692.19;;;-146.65;70.76
57094;BME280;42970;50.996;3.706;2022-09-13T12:51:13;74684.13;;;-146.65;70.59
57094;BME280;42970;50.996;3.706;2022-09-13T12:54:03;74702.28;;;-146.65;70.57
57094;BME280;42970;50.996;3.706;2022-09-13T13:01:51;74732.53;;;-146.65;74.66
57094;BME280;42970;50.996;3.706;2022-09-13T13:04:23;74760.75;;;-146.65;75.55
57094;BME280;42970;50.996;3.706;2022-09-13T13:07:04;74778.91;;;-146.65;76.42
57094;BME280;42970;50.996;3.706;2022-09-13T13:09:40;74772.84;;;-146.65;77.23
57094;BME280;42970;50.996;3.706;2022-09-13T13:12:29;74786.97;;;-146.65;77.88
57094;BME280;42970;50.996;3.706;2022-09-13T13:14:55;74807.13;;;-146.65;76.84
57094;BME280;42970;50.996;3.706;2022-09-13T13:17:38;74839.41;;;-146.65;77.49
57094;BME280;42970;50.996;3.706;2022-09-13T13:33:54;74867.63;;;-146.65;82.07
57094;BME280;42970;50.996;3.706;2022-09-13T13:36:29;74871.66;;;-146.65;83.08
57094;BME280;42970;50.996;3.706;2022-09-13T13:38:58;74899.91;;;-146.65;83.88
57094;BME280;42970;50.996;3.706;2022-09-13T13:43:58;74918.06;;;-146.65;84.79
57094;BME280;42970;50.996;3.706;2022-09-13T13:46:27;74936.22;;;-146.65;84.60
57094;BME280;42970;50.996;3.706;2022-09-13T13:48:53;74932.19;;;-146.65;84.05
57094;BME280;42970;50.996;3.706;2022-09-13T13:51:21;74934.19;;;-146.65;85.86
57094;BME280;42970;50.996;3.706;2022-09-13T13:56:25;74938.22;;;-146.65;85.69
57094;BME280;42970;50.996;3.706;2022-09-13T13:59:02;74932.19;;;-146.65;86.33
57094;BME280;42970;50.996;3.706;2022-09-13T14:01:31;74932.19;;;-146.65;85.68
57094;BME280;42970;50.996;3.706;2022-09-13T14:04:28;74934.19;;;-146.65;83.25
57094;BME280;42970;50.996;3.706;2022-09-13T14:17:57;74940.25;;;-146.65;86.38
57094;BME280;42970;50.996;3.706;2022-09-13T14:20:26;74932.19;;;-146.65;87.62
57094;BME280;42970;50.996;3.706;2022-09-13T14:23:11;74924.09;;;-146.65;88.93
57094;BME280;42970;50.996;3.706;2022-09-13T14:25:36;74930.16;;;-146.65;88.05
57094;BME280;42970;50.996;3.706;2022-09-13T14:28:01;74924.09;;;-146.65;87.73
57094;BME280;42970;50.996;3.706;2022-09-13T14:30:36;74922.09;;;-146.65;87.29
57094;BME280;42970;50.996;3.706;2022-09-13T14:33:03;74920.06;;;-146.65;85.79
57094;BME280;42970;50.996;3.706;2022-09-13T14:35:35;74924.09;;;-146.65;87.27
57094;BME280;42970;50.996;3.706;2022-09-13T14:38:22;74926.13;;;-146.65;87.48
57094;BME280;42970;50.996;3.706;2022-09-13T14:40:58;74930.16;;;-146.65;86.27
57094;BME280;42970;50.996;3.706;2022-09-13T14:43:25;74920.06;;;-146.65;85.73
57094;BME280;42970;50.996;3.706;2022-09-13T14:46:17;74916.03;;;-146.65;84.59
57094;BME280;42970;50.996;3.706;2022-09-13T14:48:47;74914.03;;;-146.65;85.00
57094;BME280;42970;50.996;3.706;2022-09-13T14:51:22;74914.03;;;-146.65;85.31
57094;BME280;42970;50.996;3.706;2022-09-13T14:53:55;74895.88;;;-146.65;84.48
57094;BME280;42970;50.996;3.706;2022-09-13T14:56:33;74895.88;;;-146.65;83.18
57094;BME280;42970;50.996;3.706;2022-09-13T14:59:04;74889.81;;;-146.65;84.88
57094;BME280;42970;50.996;3.706;2022-09-13T15:01:33;74883.78;;;-146.65;83.46
57094;BME280;42970;50.996;3.706;2022-09-13T15:04:00;74879.75;;;-146.65;84.42
57094;BME280;42970;50.996;3.706;2022-09-13T15:06:35;74881.75;;;-146.65;83.52
57094;BME280;42970;50.996;3.706;2022-09-13T15:11:37;74873.69;;;-146.65;82.57
57094;BME280;42970;50.996;3.706;2022-09-13T15:16:50;74879.75;;;-146.65;84.54
57094;BME280;42970;50.996;3.706;2022-09-13T15:19:27;74875.72;;;-146.65;84.34
57094;BME280;42970;50.996;3.706;2022-09-13T15:22:02;74889.81;;;-146.65;85.19
57094;BME280;42970;50.996;3.706;2022-09-13T15:24:31;74877.72;;;-146.65;86.18
57094;BME280;42970;50.996;3.706;2022-09-13T15:27:05;74899.91;;;-146.65;86.81
57094;BME280;42970;50.996;3.706;2022-09-13T15:29:32;74899.91;;;-146.65;87.32
57094;BME280;42970;50.996;3.706;2022-09-13T15:32:00;74914.03;;;-146.65;87.75
57094;BME280;42970;50.996;3.706;2022-09-13T15:34:27;74914.03;;;-146.65;88.35
57094;BME280;42970;50.996;3.706;2022-09-13T15:37:09;74922.09;;;-146.65;89.25
57094;BME280;42970;50.996;3.706;2022-09-13T15:39:44;74928.13;;;-146.65;89.73
57094;BME280;42970;50.996;3.706;2022-09-13T15:42:11;74934.19;;;-146.65;89.83
57094;BME280;42970;50.996;3.706;2022-09-13T15:44:36;74942.25;;;-146.65;90.56
57094;BME280;42970;50.996;3.706;2022-09-13T15:47:10;74942.25;;;-146.65;90.17
57094;BME280;42970;50.996;3.706;2022-09-13T15:49:39;74946.28;;;-146.65;90.76
57094;BME280;42970;50.996;3.706;2022-09-13T15:52:05;74948.31;;;-146.65;89.47
57094;BME280;42970;50.996;3.706;2022-09-13T15:54:39;74934.19;;;-146.65;89.33
57094;BME280;42970;50.996;3.706;2022-09-13T15:57:28;74938.22;;;-146.65;89.88
57094;BME280;42970;50.996;3.706;2022-09-13T15:59:53;74952.34;;;-146.65;89.56
57094;BME280;42970;50.996;3.706;2022-09-13T16:02:24;74958.38;;;-146.65;90.46
57094;BME280;42970;50.996;3.706;2022-09-13T16:04:50;74956.38;;;-146.65;91.30
57094;BME280;42970;50.996;3.706;2022-09-13T16:07:16;74968.47;;;-146.65;91.86